Accueil
METAR-TAF:

METAR-TAF

Aéroports :

Base aérienne de Lechfeld

Lechfeld, Allemagne

latitude: 48-11N, longitude: 010-52E, altitude: 555 m

Observation

Le bulletin a été fait il y a 1 heure et 10 minutes, à 23:20 UTC
Vent 3 kt de direction variable
Température 19°C
Humidité 88%
Pression 1016 hPa
Visibilité 10 km ou plus

METAR: ETSL 192320Z AUTO VRB03KT 9999 // ////// 19/17 Q1016 ///

Heure: 02:30 (00:30 UTC)

Prévision

Le bulletin a été fait il y a 17 heures et 11 minutes, à 07:19 UTC
Prévision valable du 19 à 08 UTC au 19 à 17 UTC
Vent 4 kt de nord/nord-est
Visibilité 10 km ou plus
Quelques nuages à une hauteur de 2500 ft
Nuages épars à une hauteur de 34000 ft

TAF: ETSL 190719Z 1908/1917 03004KT 9999 NSW FEW025 SCT340

Observations et prévisions météorologiques de plus de 4000 aéroports (messages METAR et TAF).

Les stations disponibles sont représentées par des disques jaunes et rouges sur la carte.

Passer la souris dessus pour voir le nom de la station.

Cliquer dessus pour voir les observations et prévisions météorologiques.

Pour changer de carte: cliquez sur les boutons verts avec une croix noire pour zoomer, sur le bouton vert avec un tiret pour effectuer un zoom arrière, ou sur les flèches vertes pour les cartes adjacentes.


METAR-TAF: